sensor_id;sensor_type;location;lat;lon;timestamp;P1;durP1;ratioP1;P2;durP2;ratioP2
47009;SDS011;59230;54.164;-3.124;2022-07-30T00:01:28;8.35;;;1.65;;
47009;SDS011;59230;54.164;-3.124;2022-07-30T00:04:21;2.95;;;1.40;;
47009;SDS011;59230;54.164;-3.124;2022-07-30T00:07:00;7.95;;;2.00;;
47009;SDS011;59230;54.164;-3.124;2022-07-30T00:10:05;3.17;;;1.60;;
47009;SDS011;59230;54.164;-3.124;2022-07-30T00:13:07;4.38;;;1.42;;
47009;SDS011;59230;54.164;-3.124;2022-07-30T00:16:20;3.67;;;1.60;;
47009;SDS011;59230;54.164;-3.124;2022-07-30T00:19:12;7.72;;;1.85;;
47009;SDS011;59230;54.164;-3.124;2022-07-30T00:39:23;5.47;;;1.60;;
47009;SDS011;59230;54.164;-3.124;2022-07-30T00:42:14;7.93;;;1.40;;
47009;SDS011;59230;54.164;-3.124;2022-07-30T01:09:21;10.82;;;2.63;;
47009;SDS011;59230;54.164;-3.124;2022-07-30T01:11:49;7.50;;;2.53;;
47009;SDS011;59230;54.164;-3.124;2022-07-30T01:14:16;7.97;;;3.05;;
47009;SDS011;59230;54.164;-3.124;2022-07-30T01:16:43;7.55;;;3.17;;
47009;SDS011;59230;54.164;-3.124;2022-07-30T01:19:16;9.18;;;3.28;;
47009;SDS011;59230;54.164;-3.124;2022-07-30T01:22:09;8.55;;;3.55;;
47009;SDS011;59230;54.164;-3.124;2022-07-30T01:27:27;12.43;;;4.55;;
47009;SDS011;59230;54.164;-3.124;2022-07-30T01:29:55;13.15;;;3.55;;
47009;SDS011;59230;54.164;-3.124;2022-07-30T01:32:24;17.50;;;4.93;;
47009;SDS011;59230;54.164;-3.124;2022-07-30T01:34:53;15.00;;;4.65;;
47009;SDS011;59230;54.164;-3.124;2022-07-30T01:37:24;20.52;;;5.70;;
47009;SDS011;59230;54.164;-3.124;2022-07-30T01:39:50;15.77;;;6.18;;
47009;SDS011;59230;54.164;-3.124;2022-07-30T01:42:18;15.18;;;5.70;;
47009;SDS011;59230;54.164;-3.124;2022-07-30T01:44:48;7.70;;;5.10;;
47009;SDS011;59230;54.164;-3.124;2022-07-30T01:47:14;13.60;;;6.18;;
47009;SDS011;59230;54.164;-3.124;2022-07-30T01:49:44;11.05;;;5.88;;
47009;SDS011;59230;54.164;-3.124;2022-07-30T01:52:11;16.20;;;6.18;;
47009;SDS011;59230;54.164;-3.124;2022-07-30T01:54:39;17.88;;;7.07;;
47009;SDS011;59230;54.164;-3.124;2022-07-30T01:57:12;13.45;;;7.07;;
47009;SDS011;59230;54.164;-3.124;2022-07-30T01:59:40;12.05;;;6.93;;
47009;SDS011;59230;54.164;-3.124;2022-07-30T02:02:10;15.27;;;6.55;;
47009;SDS011;59230;54.164;-3.124;2022-07-30T02:04:37;9.45;;;6.15;;
47009;SDS011;59230;54.164;-3.124;2022-07-30T02:09:40;11.73;;;6.07;;
47009;SDS011;59230;54.164;-3.124;2022-07-30T02:12:11;9.70;;;6.43;;
47009;SDS011;59230;54.164;-3.124;2022-07-30T02:21:00;12.60;;;6.40;;
47009;SDS011;59230;54.164;-3.124;2022-07-30T02:23:38;10.05;;;6.85;;
47009;SDS011;59230;54.164;-3.124;2022-07-30T02:26:09;12.13;;;7.28;;
47009;SDS011;59230;54.164;-3.124;2022-07-30T02:28:43;16.63;;;7.88;;
47009;SDS011;59230;54.164;-3.124;2022-07-30T02:31:11;10.40;;;7.25;;
47009;SDS011;59230;54.164;-3.124;2022-07-30T02:33:40;12.48;;;7.75;;
47009;SDS011;59230;54.164;-3.124;2022-07-30T02:36:11;14.63;;;7.97;;
47009;SDS011;59230;54.164;-3.124;2022-07-30T02:38:42;18.98;;;8.95;;
47009;SDS011;59230;54.164;-3.124;2022-07-30T02:41:11;15.73;;;7.70;;
47009;SDS011;59230;54.164;-3.124;2022-07-30T02:43:40;18.38;;;7.80;;
47009;SDS011;59230;54.164;-3.124;2022-07-30T02:48:34;20.80;;;7.32;;
47009;SDS011;59230;54.164;-3.124;2022-07-30T02:51:01;16.63;;;6.97;;
47009;SDS011;59230;54.164;-3.124;2022-07-30T02:53:27;15.00;;;6.60;;
47009;SDS011;59230;54.164;-3.124;2022-07-30T02:55:55;17.80;;;6.13;;
47009;SDS011;59230;54.164;-3.124;2022-07-30T02:58:22;10.05;;;6.68;;
47009;SDS011;59230;54.164;-3.124;2022-07-30T03:00:52;17.30;;;7.53;;
47009;SDS011;59230;54.164;-3.124;2022-07-30T03:03:23;16.02;;;7.38;;
47009;SDS011;59230;54.164;-3.124;2022-07-30T03:05:56;21.60;;;6.97;;
47009;SDS011;59230;54.164;-3.124;2022-07-30T03:08:27;19.10;;;7.97;;
47009;SDS011;59230;54.164;-3.124;2022-07-30T03:10:56;15.38;;;7.55;;
47009;SDS011;59230;54.164;-3.124;2022-07-30T03:13:25;21.55;;;6.60;;
47009;SDS011;59230;54.164;-3.124;2022-07-30T03:15:52;18.05;;;8.13;;
47009;SDS011;59230;54.164;-3.124;2022-07-30T03:18:19;14.95;;;8.40;;
47009;SDS011;59230;54.164;-3.124;2022-07-30T03:20:49;14.13;;;8.43;;
47009;SDS011;59230;54.164;-3.124;2022-07-30T03:23:18;19.60;;;8.60;;
47009;SDS011;59230;54.164;-3.124;2022-07-30T03:26:00;21.95;;;8.35;;
47009;SDS011;59230;54.164;-3.124;2022-07-30T03:31:17;22.73;;;9.23;;
47009;SDS011;59230;54.164;-3.124;2022-07-30T03:33:48;16.77;;;9.25;;
47009;SDS011;59230;54.164;-3.124;2022-07-30T03:36:17;12.93;;;7.55;;
47009;SDS011;59230;54.164;-3.124;2022-07-30T03:38:46;12.75;;;7.47;;
47009;SDS011;59230;54.164;-3.124;2022-07-30T03:41:13;13.40;;;7.05;;
47009;SDS011;59230;54.164;-3.124;2022-07-30T03:43:40;19.33;;;7.90;;
47009;SDS011;59230;54.164;-3.124;2022-07-30T03:46:06;11.27;;;7.82;;
47009;SDS011;59230;54.164;-3.124;2022-07-30T03:48:33;11.68;;;7.03;;
47009;SDS011;59230;54.164;-3.124;2022-07-30T03:51:02;13.50;;;8.23;;
47009;SDS011;59230;54.164;-3.124;2022-07-30T03:53:29;18.55;;;8.38;;
47009;SDS011;59230;54.164;-3.124;2022-07-30T03:55:57;15.93;;;7.95;;
47009;SDS011;59230;54.164;-3.124;2022-07-30T03:58:23;15.88;;;8.30;;
47009;SDS011;59230;54.164;-3.124;2022-07-30T04:00:49;19.45;;;7.63;;
47009;SDS011;59230;54.164;-3.124;2022-07-30T04:03:26;14.65;;;7.80;;
47009;SDS011;59230;54.164;-3.124;2022-07-30T04:05:54;13.13;;;6.93;;
47009;SDS011;59230;54.164;-3.124;2022-07-30T04:08:23;18.15;;;6.35;;
47009;SDS011;59230;54.164;-3.124;2022-07-30T04:10:49;19.55;;;6.72;;
47009;SDS011;59230;54.164;-3.124;2022-07-30T04:13:16;12.18;;;6.25;;
47009;SDS011;59230;54.164;-3.124;2022-07-30T04:15:46;11.63;;;5.70;;
47009;SDS011;59230;54.164;-3.124;2022-07-30T04:18:33;12.00;;;5.97;;
47009;SDS011;59230;54.164;-3.124;2022-07-30T04:21:04;10.75;;;5.80;;
47009;SDS011;59230;54.164;-3.124;2022-07-30T04:23:31;19.63;;;5.57;;
47009;SDS011;59230;54.164;-3.124;2022-07-30T04:25:58;22.40;;;6.95;;
47009;SDS011;59230;54.164;-3.124;2022-07-30T04:28:26;13.77;;;5.88;;
47009;SDS011;59230;54.164;-3.124;2022-07-30T04:33:40;13.88;;;4.90;;
47009;SDS011;59230;54.164;-3.124;2022-07-30T04:36:11;16.50;;;5.60;;
47009;SDS011;59230;54.164;-3.124;2022-07-30T04:38:38;15.20;;;5.07;;
47009;SDS011;59230;54.164;-3.124;2022-07-30T04:41:03;17.48;;;5.97;;
47009;SDS011;59230;54.164;-3.124;2022-07-30T04:43:30;12.73;;;5.18;;
47009;SDS011;59230;54.164;-3.124;2022-07-30T04:45:57;17.20;;;5.43;;
47009;SDS011;59230;54.164;-3.124;2022-07-30T04:48:23;28.50;;;5.82;;
47009;SDS011;59230;54.164;-3.124;2022-07-30T04:50:52;20.85;;;5.00;;
47009;SDS011;59230;54.164;-3.124;2022-07-30T04:53:22;15.80;;;4.75;;
47009;SDS011;59230;54.164;-3.124;2022-07-30T04:55:50;22.33;;;5.40;;
47009;SDS011;59230;54.164;-3.124;2022-07-30T04:58:17;26.10;;;5.88;;
47009;SDS011;59230;54.164;-3.124;2022-07-30T05:00:47;22.80;;;5.32;;
47009;SDS011;59230;54.164;-3.124;2022-07-30T05:03:14;23.92;;;6.05;;
47009;SDS011;59230;54.164;-3.124;2022-07-30T05:05:40;25.80;;;5.88;;
47009;SDS011;59230;54.164;-3.124;2022-07-30T05:08:08;27.45;;;6.20;;
47009;SDS011;59230;54.164;-3.124;2022-07-30T05:10:35;21.98;;;6.25;;
47009;SDS011;59230;54.164;-3.124;2022-07-30T05:13:01;29.95;;;6.07;;
47009;SDS011;59230;54.164;-3.124;2022-07-30T05:15:27;20.85;;;5.28;;
47009;SDS011;59230;54.164;-3.124;2022-07-30T05:17:54;20.92;;;5.80;;
47009;SDS011;59230;54.164;-3.124;2022-07-30T05:20:22;16.98;;;5.18;;
47009;SDS011;59230;54.164;-3.124;2022-07-30T05:22:49;24.63;;;6.07;;
47009;SDS011;59230;54.164;-3.124;2022-07-30T05:25:14;30.38;;;5.40;;
47009;SDS011;59230;54.164;-3.124;2022-07-30T05:27:42;20.13;;;5.38;;
47009;SDS011;59230;54.164;-3.124;2022-07-30T05:30:09;21.30;;;5.10;;
47009;SDS011;59230;54.164;-3.124;2022-07-30T05:35:27;26.48;;;5.60;;
47009;SDS011;59230;54.164;-3.124;2022-07-30T05:37:53;29.35;;;5.90;;
47009;SDS011;59230;54.164;-3.124;2022-07-30T05:40:22;37.10;;;6.28;;
47009;SDS011;59230;54.164;-3.124;2022-07-30T05:42:47;29.25;;;6.28;;
47009;SDS011;59230;54.164;-3.124;2022-07-30T05:45:13;25.10;;;5.97;;
47009;SDS011;59230;54.164;-3.124;2022-07-30T05:47:40;22.10;;;6.10;;
47009;SDS011;59230;54.164;-3.124;2022-07-30T05:50:05;26.10;;;5.55;;
47009;SDS011;59230;54.164;-3.124;2022-07-30T05:52:33;28.63;;;5.80;;
47009;SDS011;59230;54.164;-3.124;2022-07-30T05:55:01;17.55;;;5.40;;
47009;SDS011;59230;54.164;-3.124;2022-07-30T05:57:28;16.63;;;4.57;;
47009;SDS011;59230;54.164;-3.124;2022-07-30T05:59:56;15.32;;;3.83;;
47009;SDS011;59230;54.164;-3.124;2022-07-30T06:02:25;16.10;;;3.45;;
47009;SDS011;59230;54.164;-3.124;2022-07-30T06:04:51;16.80;;;3.63;;
47009;SDS011;59230;54.164;-3.124;2022-07-30T06:07:19;16.17;;;3.63;;
47009;SDS011;59230;54.164;-3.124;2022-07-30T06:09:48;9.13;;;3.20;;
47009;SDS011;59230;54.164;-3.124;2022-07-30T06:12:15;15.95;;;3.22;;
47009;SDS011;59230;54.164;-3.124;2022-07-30T06:14:44;11.07;;;3.28;;
47009;SDS011;59230;54.164;-3.124;2022-07-30T06:17:12;10.27;;;2.90;;
47009;SDS011;59230;54.164;-3.124;2022-07-30T06:19:40;8.93;;;2.20;;
47009;SDS011;59230;54.164;-3.124;2022-07-30T06:22:05;6.82;;;2.00;;
47009;SDS011;59230;54.164;-3.124;2022-07-30T06:24:32;15.45;;;2.33;;
47009;SDS011;59230;54.164;-3.124;2022-07-30T06:27:00;10.10;;;2.10;;
47009;SDS011;59230;54.164;-3.124;2022-07-30T06:29:27;5.85;;;1.92;;
47009;SDS011;59230;54.164;-3.124;2022-07-30T06:31:55;12.63;;;2.00;;
47009;SDS011;59230;54.164;-3.124;2022-07-30T06:37:10;5.72;;;1.88;;
47009;SDS011;59230;54.164;-3.124;2022-07-30T06:39:37;6.38;;;2.40;;
47009;SDS011;59230;54.164;-3.124;2022-07-30T06:42:03;12.13;;;3.20;;
47009;SDS011;59230;54.164;-3.124;2022-07-30T06:44:28;20.90;;;5.47;;
47009;SDS011;59230;54.164;-3.124;2022-07-30T06:46:54;16.67;;;4.03;;
47009;SDS011;59230;54.164;-3.124;2022-07-30T06:49:21;18.60;;;4.80;;
47009;SDS011;59230;54.164;-3.124;2022-07-30T06:51:49;21.02;;;5.72;;
47009;SDS011;59230;54.164;-3.124;2022-07-30T06:54:16;20.70;;;5.40;;
47009;SDS011;59230;54.164;-3.124;2022-07-30T06:56:42;24.17;;;6.10;;
47009;SDS011;59230;54.164;-3.124;2022-07-30T06:59:09;22.58;;;6.18;;
47009;SDS011;59230;54.164;-3.124;2022-07-30T07:01:36;24.27;;;6.05;;
47009;SDS011;59230;54.164;-3.124;2022-07-30T07:04:06;27.02;;;6.22;;
47009;SDS011;59230;54.164;-3.124;2022-07-30T07:06:33;24.13;;;6.00;;
47009;SDS011;59230;54.164;-3.124;2022-07-30T07:09:02;25.40;;;5.65;;
47009;SDS011;59230;54.164;-3.124;2022-07-30T07:11:29;25.40;;;6.75;;
47009;SDS011;59230;54.164;-3.124;2022-07-30T07:13:54;26.02;;;6.35;;
47009;SDS011;59230;54.164;-3.124;2022-07-30T07:16:23;33.75;;;6.97;;
47009;SDS011;59230;54.164;-3.124;2022-07-30T07:18:52;24.70;;;6.85;;
47009;SDS011;59230;54.164;-3.124;2022-07-30T07:21:19;31.08;;;6.15;;
47009;SDS011;59230;54.164;-3.124;2022-07-30T07:23:46;22.30;;;5.93;;
47009;SDS011;59230;54.164;-3.124;2022-07-30T07:26:17;48.63;;;6.97;;
47009;SDS011;59230;54.164;-3.124;2022-07-30T07:28:45;40.50;;;6.60;;
47009;SDS011;59230;54.164;-3.124;2022-07-30T07:31:10;25.33;;;5.10;;
47009;SDS011;59230;54.164;-3.124;2022-07-30T07:33:36;36.67;;;6.70;;
47009;SDS011;59230;54.164;-3.124;2022-07-30T07:36:04;40.28;;;6.18;;
47009;SDS011;59230;54.164;-3.124;2022-07-30T07:38:33;26.20;;;5.47;;
47009;SDS011;59230;54.164;-3.124;2022-07-30T07:40:58;23.88;;;5.15;;
47009;SDS011;59230;54.164;-3.124;2022-07-30T07:43:25;29.33;;;5.95;;
47009;SDS011;59230;54.164;-3.124;2022-07-30T07:45:52;30.77;;;5.43;;
47009;SDS011;59230;54.164;-3.124;2022-07-30T07:48:18;21.50;;;5.10;;
47009;SDS011;59230;54.164;-3.124;2022-07-30T07:50:44;21.90;;;5.32;;
47009;SDS011;59230;54.164;-3.124;2022-07-30T07:53:11;24.25;;;4.70;;
47009;SDS011;59230;54.164;-3.124;2022-07-30T07:55:37;22.10;;;4.72;;
47009;SDS011;59230;54.164;-3.124;2022-07-30T07:58:03;26.00;;;5.45;;
47009;SDS011;59230;54.164;-3.124;2022-07-30T08:00:32;28.23;;;5.82;;
47009;SDS011;59230;54.164;-3.124;2022-07-30T08:03:00;30.05;;;5.80;;
47009;SDS011;59230;54.164;-3.124;2022-07-30T08:05:26;26.25;;;5.05;;
47009;SDS011;59230;54.164;-3.124;2022-07-30T08:07:51;29.67;;;5.93;;
47009;SDS011;59230;54.164;-3.124;2022-07-30T08:10:18;27.23;;;5.32;;
47009;SDS011;59230;54.164;-3.124;2022-07-30T08:12:47;22.85;;;4.78;;
47009;SDS011;59230;54.164;-3.124;2022-07-30T08:15:13;19.30;;;4.80;;
47009;SDS011;59230;54.164;-3.124;2022-07-30T08:17:39;22.35;;;5.10;;
47009;SDS011;59230;54.164;-3.124;2022-07-30T08:20:10;27.05;;;5.28;;
47009;SDS011;59230;54.164;-3.124;2022-07-30T08:22:36;17.33;;;5.13;;
47009;SDS011;59230;54.164;-3.124;2022-07-30T08:25:03;19.05;;;4.80;;
47009;SDS011;59230;54.164;-3.124;2022-07-30T08:27:31;25.27;;;5.88;;
47009;SDS011;59230;54.164;-3.124;2022-07-30T08:30:17;21.80;;;5.35;;
47009;SDS011;59230;54.164;-3.124;2022-07-30T08:32:46;22.10;;;5.32;;
47009;SDS011;59230;54.164;-3.124;2022-07-30T08:35:13;20.73;;;4.90;;
47009;SDS011;59230;54.164;-3.124;2022-07-30T08:37:42;16.65;;;4.85;;
47009;SDS011;59230;54.164;-3.124;2022-07-30T08:40:11;31.38;;;6.07;;
47009;SDS011;59230;54.164;-3.124;2022-07-30T08:42:38;16.55;;;4.50;;
47009;SDS011;59230;54.164;-3.124;2022-07-30T08:45:05;15.93;;;4.35;;
47009;SDS011;59230;54.164;-3.124;2022-07-30T08:47:36;13.32;;;4.43;;
47009;SDS011;59230;54.164;-3.124;2022-07-30T08:50:12;12.95;;;3.28;;
47009;SDS011;59230;54.164;-3.124;2022-07-30T08:52:40;12.77;;;2.83;;
47009;SDS011;59230;54.164;-3.124;2022-07-30T08:55:08;10.82;;;2.40;;
47009;SDS011;59230;54.164;-3.124;2022-07-30T08:57:35;5.68;;;1.90;;
47009;SDS011;59230;54.164;-3.124;2022-07-30T09:00:02;12.10;;;2.17;;
47009;SDS011;59230;54.164;-3.124;2022-07-30T09:02:35;6.22;;;2.60;;
47009;SDS011;59230;54.164;-3.124;2022-07-30T09:05:03;8.98;;;2.60;;
47009;SDS011;59230;54.164;-3.124;2022-07-30T09:07:31;10.68;;;2.67;;
47009;SDS011;59230;54.164;-3.124;2022-07-30T09:10:01;10.38;;;3.28;;
47009;SDS011;59230;54.164;-3.124;2022-07-30T09:12:35;16.23;;;3.30;;
47009;SDS011;59230;54.164;-3.124;2022-07-30T09:15:15;29.85;;;4.47;;
47009;SDS011;59230;54.164;-3.124;2022-07-30T09:20:12;17.50;;;4.97;;
47009;SDS011;59230;54.164;-3.124;2022-07-30T09:22:50;14.80;;;3.53;;
47009;SDS011;59230;54.164;-3.124;2022-07-30T09:28:02;16.10;;;2.90;;
47009;SDS011;59230;54.164;-3.124;2022-07-30T09:30:49;14.43;;;2.95;;
47009;SDS011;59230;54.164;-3.124;2022-07-30T09:33:36;15.18;;;3.35;;
47009;SDS011;59230;54.164;-3.124;2022-07-30T09:36:03;11.80;;;2.78;;
47009;SDS011;59230;54.164;-3.124;2022-07-30T09:44:26;13.07;;;2.85;;
47009;SDS011;59230;54.164;-3.124;2022-07-30T09:46:54;14.77;;;3.08;;
47009;SDS011;59230;54.164;-3.124;2022-07-30T09:49:23;15.18;;;3.30;;
47009;SDS011;59230;54.164;-3.124;2022-07-30T09:51:52;14.15;;;2.90;;
47009;SDS011;59230;54.164;-3.124;2022-07-30T09:54:20;9.55;;;3.00;;
47009;SDS011;59230;54.164;-3.124;2022-07-30T09:56:51;14.18;;;2.95;;
47009;SDS011;59230;54.164;-3.124;2022-07-30T09:59:28;10.38;;;2.10;;
47009;SDS011;59230;54.164;-3.124;2022-07-30T10:01:59;15.10;;;2.47;;
47009;SDS011;59230;54.164;-3.124;2022-07-30T10:04:28;10.48;;;2.38;;
47009;SDS011;59230;54.164;-3.124;2022-07-30T10:06:56;13.23;;;2.42;;
47009;SDS011;59230;54.164;-3.124;2022-07-30T10:12:01;4.40;;;2.03;;
47009;SDS011;59230;54.164;-3.124;2022-07-30T10:14:31;8.27;;;2.25;;
47009;SDS011;59230;54.164;-3.124;2022-07-30T10:17:02;5.95;;;2.00;;
47009;SDS011;59230;54.164;-3.124;2022-07-30T10:19:35;9.63;;;2.00;;
47009;SDS011;59230;54.164;-3.124;2022-07-30T10:22:14;3.97;;;1.60;;
47009;SDS011;59230;54.164;-3.124;2022-07-30T10:24:41;3.80;;;1.10;;
47009;SDS011;59230;54.164;-3.124;2022-07-30T10:27:09;4.68;;;1.20;;
47009;SDS011;59230;54.164;-3.124;2022-07-30T10:29:36;3.78;;;0.95;;
47009;SDS011;59230;54.164;-3.124;2022-07-30T10:32:08;5.28;;;1.00;;
47009;SDS011;59230;54.164;-3.124;2022-07-30T10:34:36;2.92;;;1.60;;
47009;SDS011;59230;54.164;-3.124;2022-07-30T10:37:06;4.28;;;2.40;;
47009;SDS011;59230;54.164;-3.124;2022-07-30T10:39:40;7.82;;;2.80;;
47009;SDS011;59230;54.164;-3.124;2022-07-30T10:42:36;5.88;;;2.55;;
47009;SDS011;59230;54.164;-3.124;2022-07-30T10:45:16;9.05;;;3.38;;
47009;SDS011;59230;54.164;-3.124;2022-07-30T10:47:50;13.02;;;3.65;;
47009;SDS011;59230;54.164;-3.124;2022-07-30T10:50:17;8.93;;;3.42;;
47009;SDS011;59230;54.164;-3.124;2022-07-30T10:52:59;11.63;;;3.40;;
47009;SDS011;59230;54.164;-3.124;2022-07-30T10:55:30;8.85;;;4.45;;
47009;SDS011;59230;54.164;-3.124;2022-07-30T11:03:24;5.10;;;3.38;;
47009;SDS011;59230;54.164;-3.124;2022-07-30T11:05:52;10.35;;;3.55;;
47009;SDS011;59230;54.164;-3.124;2022-07-30T11:08:40;7.35;;;2.70;;
47009;SDS011;59230;54.164;-3.124;2022-07-30T11:16:19;6.70;;;3.55;;
47009;SDS011;59230;54.164;-3.124;2022-07-30T11:19:10;3.60;;;2.42;;
47009;SDS011;59230;54.164;-3.124;2022-07-30T11:21:41;4.25;;;2.47;;
47009;SDS011;59230;54.164;-3.124;2022-07-30T11:30:35;8.07;;;3.50;;
47009;SDS011;59230;54.164;-3.124;2022-07-30T11:35:41;9.60;;;3.63;;
47009;SDS011;59230;54.164;-3.124;2022-07-30T11:38:12;8.80;;;3.35;;
47009;SDS011;59230;54.164;-3.124;2022-07-30T11:41:28;7.18;;;2.80;;
47009;SDS011;59230;54.164;-3.124;2022-07-30T11:46:33;6.15;;;2.42;;
47009;SDS011;59230;54.164;-3.124;2022-07-30T11:49:00;7.45;;;2.40;;
47009;SDS011;59230;54.164;-3.124;2022-07-30T11:51:39;4.45;;;2.60;;
47009;SDS011;59230;54.164;-3.124;2022-07-30T11:54:15;10.65;;;3.40;;
47009;SDS011;59230;54.164;-3.124;2022-07-30T11:56:47;12.23;;;4.47;;
47009;SDS011;59230;54.164;-3.124;2022-07-30T11:59:14;10.88;;;4.22;;
47009;SDS011;59230;54.164;-3.124;2022-07-30T12:01:42;9.45;;;4.43;;
47009;SDS011;59230;54.164;-3.124;2022-07-30T12:04:13;9.75;;;4.05;;
47009;SDS011;59230;54.164;-3.124;2022-07-30T12:06:47;11.90;;;4.82;;
47009;SDS011;59230;54.164;-3.124;2022-07-30T12:09:22;12.57;;;4.63;;
47009;SDS011;59230;54.164;-3.124;2022-07-30T12:11:53;10.07;;;3.75;;
47009;SDS011;59230;54.164;-3.124;2022-07-30T12:14:27;8.23;;;3.45;;
47009;SDS011;59230;54.164;-3.124;2022-07-30T12:17:04;7.80;;;3.47;;
47009;SDS011;59230;54.164;-3.124;2022-07-30T12:19:29;12.02;;;3.00;;
47009;SDS011;59230;54.164;-3.124;2022-07-30T12:21:57;7.80;;;2.97;;
47009;SDS011;59230;54.164;-3.124;2022-07-30T12:24:24;6.45;;;1.95;;
47009;SDS011;59230;54.164;-3.124;2022-07-30T12:27:02;2.40;;;1.58;;
47009;SDS011;59230;54.164;-3.124;2022-07-30T12:29:29;3.22;;;1.65;;
47009;SDS011;59230;54.164;-3.124;2022-07-30T12:32:02;2.88;;;1.33;;
47009;SDS011;59230;54.164;-3.124;2022-07-30T12:34:29;4.57;;;1.77;;
47009;SDS011;59230;54.164;-3.124;2022-07-30T12:37:05;6.03;;;2.25;;
47009;SDS011;59230;54.164;-3.124;2022-07-30T12:40:20;3.97;;;2.40;;
47009;SDS011;59230;54.164;-3.124;2022-07-30T12:42:51;6.55;;;2.42;;
47009;SDS011;59230;54.164;-3.124;2022-07-30T12:45:28;3.20;;;2.50;;
47009;SDS011;59230;54.164;-3.124;2022-07-30T12:48:18;6.65;;;3.50;;
47009;SDS011;59230;54.164;-3.124;2022-07-30T12:50:43;5.82;;;3.28;;
47009;SDS011;59230;54.164;-3.124;2022-07-30T12:53:10;9.90;;;3.40;;
47009;SDS011;59230;54.164;-3.124;2022-07-30T12:55:35;7.38;;;3.13;;
47009;SDS011;59230;54.164;-3.124;2022-07-30T12:58:05;7.95;;;3.42;;
47009;SDS011;59230;54.164;-3.124;2022-07-30T13:03:23;8.93;;;2.90;;
47009;SDS011;59230;54.164;-3.124;2022-07-30T13:05:51;9.05;;;3.63;;
47009;SDS011;59230;54.164;-3.124;2022-07-30T13:08:18;8.60;;;3.47;;
47009;SDS011;59230;54.164;-3.124;2022-07-30T13:10:56;8.05;;;3.47;;
47009;SDS011;59230;54.164;-3.124;2022-07-30T13:13:26;13.88;;;4.25;;
47009;SDS011;59230;54.164;-3.124;2022-07-30T13:16:00;8.93;;;3.85;;
47009;SDS011;59230;54.164;-3.124;2022-07-30T13:18:28;10.65;;;3.72;;
47009;SDS011;59230;54.164;-3.124;2022-07-30T13:20:56;9.68;;;4.18;;
47009;SDS011;59230;54.164;-3.124;2022-07-30T13:23:24;19.33;;;4.60;;
47009;SDS011;59230;54.164;-3.124;2022-07-30T13:25:51;10.32;;;3.70;;
47009;SDS011;59230;54.164;-3.124;2022-07-30T13:28:17;14.10;;;4.25;;
47009;SDS011;59230;54.164;-3.124;2022-07-30T13:30:47;17.35;;;4.03;;
47009;SDS011;59230;54.164;-3.124;2022-07-30T13:33:16;8.82;;;4.05;;
47009;SDS011;59230;54.164;-3.124;2022-07-30T13:35:43;13.77;;;4.28;;
47009;SDS011;59230;54.164;-3.124;2022-07-30T13:38:12;7.05;;;3.17;;
47009;SDS011;59230;54.164;-3.124;2022-07-30T13:40:37;10.65;;;3.67;;
47009;SDS011;59230;54.164;-3.124;2022-07-30T13:43:07;11.00;;;4.00;;
47009;SDS011;59230;54.164;-3.124;2022-07-30T13:45:35;7.93;;;3.70;;
47009;SDS011;59230;54.164;-3.124;2022-07-30T13:53:28;11.45;;;3.70;;
47009;SDS011;59230;54.164;-3.124;2022-07-30T13:55:58;12.07;;;4.03;;
47009;SDS011;59230;54.164;-3.124;2022-07-30T13:58:26;12.18;;;4.38;;
47009;SDS011;59230;54.164;-3.124;2022-07-30T14:00:54;15.68;;;4.28;;
47009;SDS011;59230;54.164;-3.124;2022-07-30T14:03:21;9.07;;;4.07;;
47009;SDS011;59230;54.164;-3.124;2022-07-30T14:05:46;9.48;;;4.03;;
47009;SDS011;59230;54.164;-3.124;2022-07-30T14:08:13;8.52;;;4.30;;
47009;SDS011;59230;54.164;-3.124;2022-07-30T14:10:40;14.15;;;4.25;;
47009;SDS011;59230;54.164;-3.124;2022-07-30T14:13:06;14.77;;;4.18;;
47009;SDS011;59230;54.164;-3.124;2022-07-30T14:15:34;7.13;;;3.33;;
47009;SDS011;59230;54.164;-3.124;2022-07-30T14:18:02;6.18;;;3.35;;
47009;SDS011;59230;54.164;-3.124;2022-07-30T14:20:28;6.35;;;3.13;;
47009;SDS011;59230;54.164;-3.124;2022-07-30T14:22:54;6.68;;;3.28;;
47009;SDS011;59230;54.164;-3.124;2022-07-30T14:25:22;15.75;;;3.78;;
47009;SDS011;59230;54.164;-3.124;2022-07-30T14:27:51;7.80;;;3.65;;
47009;SDS011;59230;54.164;-3.124;2022-07-30T14:30:19;11.18;;;3.60;;
47009;SDS011;59230;54.164;-3.124;2022-07-30T14:32:46;7.80;;;3.90;;
47009;SDS011;59230;54.164;-3.124;2022-07-30T14:35:16;8.27;;;3.63;;
47009;SDS011;59230;54.164;-3.124;2022-07-30T14:37:41;10.77;;;3.22;;
47009;SDS011;59230;54.164;-3.124;2022-07-30T14:40:07;9.18;;;3.60;;
47009;SDS011;59230;54.164;-3.124;2022-07-30T14:42:36;6.25;;;2.97;;
47009;SDS011;59230;54.164;-3.124;2022-07-30T14:45:11;7.22;;;2.35;;
47009;SDS011;59230;54.164;-3.124;2022-07-30T14:47:39;4.38;;;2.50;;
47009;SDS011;59230;54.164;-3.124;2022-07-30T14:50:06;8.95;;;3.05;;
47009;SDS011;59230;54.164;-3.124;2022-07-30T14:52:37;12.45;;;2.70;;
47009;SDS011;59230;54.164;-3.124;2022-07-30T14:55:05;8.25;;;2.72;;
47009;SDS011;59230;54.164;-3.124;2022-07-30T14:57:33;7.30;;;2.90;;
47009;SDS011;59230;54.164;-3.124;2022-07-30T14:59:58;7.65;;;3.75;;
47009;SDS011;59230;54.164;-3.124;2022-07-30T15:02:27;6.90;;;3.58;;
47009;SDS011;59230;54.164;-3.124;2022-07-30T15:04:55;5.05;;;2.92;;
47009;SDS011;59230;54.164;-3.124;2022-07-30T15:07:27;5.68;;;3.38;;
47009;SDS011;59230;54.164;-3.124;2022-07-30T15:09:54;5.07;;;3.28;;
47009;SDS011;59230;54.164;-3.124;2022-07-30T15:12:21;10.57;;;3.47;;
47009;SDS011;59230;54.164;-3.124;2022-07-30T15:14:51;10.27;;;4.22;;
47009;SDS011;59230;54.164;-3.124;2022-07-30T15:17:16;6.00;;;4.13;;
47009;SDS011;59230;54.164;-3.124;2022-07-30T15:19:43;11.18;;;4.40;;
47009;SDS011;59230;54.164;-3.124;2022-07-30T15:22:09;7.20;;;4.32;;
47009;SDS011;59230;54.164;-3.124;2022-07-30T15:24:37;8.73;;;4.80;;
47009;SDS011;59230;54.164;-3.124;2022-07-30T15:27:02;7.93;;;4.55;;
47009;SDS011;59230;54.164;-3.124;2022-07-30T15:29:28;5.80;;;4.15;;
47009;SDS011;59230;54.164;-3.124;2022-07-30T15:31:57;10.63;;;5.03;;
47009;SDS011;59230;54.164;-3.124;2022-07-30T15:34:25;12.63;;;4.88;;
47009;SDS011;59230;54.164;-3.124;2022-07-30T15:36:58;13.27;;;5.35;;
47009;SDS011;59230;54.164;-3.124;2022-07-30T15:39:26;17.10;;;6.47;;
47009;SDS011;59230;54.164;-3.124;2022-07-30T15:41:53;15.48;;;6.00;;
47009;SDS011;59230;54.164;-3.124;2022-07-30T15:44:23;9.38;;;5.78;;
47009;SDS011;59230;54.164;-3.124;2022-07-30T15:46:51;15.82;;;7.30;;
47009;SDS011;59230;54.164;-3.124;2022-07-30T15:49:17;12.07;;;6.07;;
47009;SDS011;59230;54.164;-3.124;2022-07-30T15:54:38;18.25;;;6.75;;
47009;SDS011;59230;54.164;-3.124;2022-07-30T15:57:04;15.77;;;6.00;;
47009;SDS011;59230;54.164;-3.124;2022-07-30T15:59:30;14.77;;;6.75;;
47009;SDS011;59230;54.164;-3.124;2022-07-30T16:01:57;16.15;;;6.32;;
47009;SDS011;59230;54.164;-3.124;2022-07-30T16:04:22;12.10;;;5.82;;
47009;SDS011;59230;54.164;-3.124;2022-07-30T16:06:51;16.23;;;5.28;;
47009;SDS011;59230;54.164;-3.124;2022-07-30T16:09:22;11.18;;;5.68;;
47009;SDS011;59230;54.164;-3.124;2022-07-30T16:11:48;12.93;;;5.85;;
47009;SDS011;59230;54.164;-3.124;2022-07-30T16:14:15;18.42;;;6.05;;
47009;SDS011;59230;54.164;-3.124;2022-07-30T16:16:41;10.35;;;5.35;;
47009;SDS011;59230;54.164;-3.124;2022-07-30T16:19:06;14.70;;;5.50;;
47009;SDS011;59230;54.164;-3.124;2022-07-30T16:21:36;10.30;;;5.30;;
47009;SDS011;59230;54.164;-3.124;2022-07-30T16:24:02;9.57;;;5.32;;
47009;SDS011;59230;54.164;-3.124;2022-07-30T16:26:29;12.65;;;4.75;;
47009;SDS011;59230;54.164;-3.124;2022-07-30T16:28:58;10.80;;;5.60;;
47009;SDS011;59230;54.164;-3.124;2022-07-30T16:31:23;12.82;;;5.30;;
47009;SDS011;59230;54.164;-3.124;2022-07-30T16:33:50;10.38;;;4.82;;
47009;SDS011;59230;54.164;-3.124;2022-07-30T16:36:17;10.90;;;4.80;;